sensor_id;sensor_type;location;lat;lon;timestamp;temperature;humidity
12504;DHT22;6316;48.118;-1.690;2022-09-28T00:01:50;16.10;99.90
12504;DHT22;6316;48.118;-1.690;2022-09-28T00:04:16;16.10;99.90
12504;DHT22;6316;48.118;-1.690;2022-09-28T00:06:42;16.10;99.90
12504;DHT22;6316;48.118;-1.690;2022-09-28T00:09:08;16.10;99.90
12504;DHT22;6316;48.118;-1.690;2022-09-28T00:11:34;16.10;99.90
12504;DHT22;6316;48.118;-1.690;2022-09-28T00:14:01;16.10;99.90
12504;DHT22;6316;48.118;-1.690;2022-09-28T00:16:33;16.10;99.90
12504;DHT22;6316;48.118;-1.690;2022-09-28T00:18:59;16.10;99.90
12504;DHT22;6316;48.118;-1.690;2022-09-28T00:21:30;16.10;99.90
12504;DHT22;6316;48.118;-1.690;2022-09-28T00:23:59;16.00;99.90
12504;DHT22;6316;48.118;-1.690;2022-09-28T00:26:54;16.00;99.90
12504;DHT22;6316;48.118;-1.690;2022-09-28T00:29:25;16.00;99.90
12504;DHT22;6316;48.118;-1.690;2022-09-28T00:31:53;16.00;99.90
12504;DHT22;6316;48.118;-1.690;2022-09-28T00:34:25;16.00;99.90
12504;DHT22;6316;48.118;-1.690;2022-09-28T00:36:50;16.00;99.90
12504;DHT22;6316;48.118;-1.690;2022-09-28T00:39:16;15.90;99.90
12504;DHT22;6316;48.118;-1.690;2022-09-28T00:41:43;15.90;99.90
12504;DHT22;6316;48.118;-1.690;2022-09-28T00:47:22;15.80;99.90
12504;DHT22;6316;48.118;-1.690;2022-09-28T00:49:55;15.80;99.90
12504;DHT22;6316;48.118;-1.690;2022-09-28T00:52:37;15.80;99.90
12504;DHT22;6316;48.118;-1.690;2022-09-28T00:55:08;15.80;99.90
12504;DHT22;6316;48.118;-1.690;2022-09-28T00:57:38;15.80;99.90
12504;DHT22;6316;48.118;-1.690;2022-09-28T01:00:04;15.80;99.90
12504;DHT22;6316;48.118;-1.690;2022-09-28T01:02:30;15.90;99.90
12504;DHT22;6316;48.118;-1.690;2022-09-28T01:04:57;15.80;99.90
12504;DHT22;6316;48.118;-1.690;2022-09-28T01:07:24;15.80;99.90
12504;DHT22;6316;48.118;-1.690;2022-09-28T01:09:50;15.80;99.90
12504;DHT22;6316;48.118;-1.690;2022-09-28T01:12:18;15.80;99.90
12504;DHT22;6316;48.118;-1.690;2022-09-28T01:14:44;15.90;99.90
12504;DHT22;6316;48.118;-1.690;2022-09-28T01:17:16;15.90;99.90
12504;DHT22;6316;48.118;-1.690;2022-09-28T01:28:34;15.90;99.90
12504;DHT22;6316;48.118;-1.690;2022-09-28T01:31:12;16.00;99.90
12504;DHT22;6316;48.118;-1.690;2022-09-28T01:33:44;16.00;99.90
12504;DHT22;6316;48.118;-1.690;2022-09-28T01:36:20;16.00;99.90
12504;DHT22;6316;48.118;-1.690;2022-09-28T01:38:56;16.00;99.90
12504;DHT22;6316;48.118;-1.690;2022-09-28T01:41:26;16.00;99.90
12504;DHT22;6316;48.118;-1.690;2022-09-28T01:43:59;16.00;99.90
12504;DHT22;6316;48.118;-1.690;2022-09-28T01:49:17;16.10;99.90
12504;DHT22;6316;48.118;-1.690;2022-09-28T01:52:01;16.00;99.90
12504;DHT22;6316;48.118;-1.690;2022-09-28T01:57:33;16.10;99.90
12504;DHT22;6316;48.118;-1.690;2022-09-28T02:00:16;16.10;99.90
12504;DHT22;6316;48.118;-1.690;2022-09-28T02:05:19;16.10;99.90
12504;DHT22;6316;48.118;-1.690;2022-09-28T02:08:08;16.10;99.90
12504;DHT22;6316;48.118;-1.690;2022-09-28T02:10:44;16.10;99.90
12504;DHT22;6316;48.118;-1.690;2022-09-28T02:13:17;16.10;99.90
12504;DHT22;6316;48.118;-1.690;2022-09-28T02:15:55;16.10;99.90
12504;DHT22;6316;48.118;-1.690;2022-09-28T02:18:23;16.00;99.90
12504;DHT22;6316;48.118;-1.690;2022-09-28T02:21:04;15.80;99.90
12504;DHT22;6316;48.118;-1.690;2022-09-28T02:23:34;15.50;99.90
12504;DHT22;6316;48.118;-1.690;2022-09-28T02:26:04;15.30;99.90
12504;DHT22;6316;48.118;-1.690;2022-09-28T02:28:31;15.20;99.90
12504;DHT22;6316;48.118;-1.690;2022-09-28T02:30:56;15.10;99.90
12504;DHT22;6316;48.118;-1.690;2022-09-28T02:33:38;15.00;99.90
12504;DHT22;6316;48.118;-1.690;2022-09-28T02:36:05;15.00;99.90
12504;DHT22;6316;48.118;-1.690;2022-09-28T02:38:31;14.80;99.90
12504;DHT22;6316;48.118;-1.690;2022-09-28T02:41:04;14.70;99.90
12504;DHT22;6316;48.118;-1.690;2022-09-28T02:43:56;14.60;99.90
12504;DHT22;6316;48.118;-1.690;2022-09-28T02:47:09;14.50;99.90
12504;DHT22;6316;48.118;-1.690;2022-09-28T02:49:40;14.40;99.90
12504;DHT22;6316;48.118;-1.690;2022-09-28T02:58:00;14.30;99.90
12504;DHT22;6316;48.118;-1.690;2022-09-28T03:00:28;14.30;99.90
12504;DHT22;6316;48.118;-1.690;2022-09-28T03:03:10;14.20;99.90
12504;DHT22;6316;48.118;-1.690;2022-09-28T03:05:49;14.20;99.90
12504;DHT22;6316;48.118;-1.690;2022-09-28T03:08:36;14.10;99.90
12504;DHT22;6316;48.118;-1.690;2022-09-28T03:11:08;14.10;99.90
12504;DHT22;6316;48.118;-1.690;2022-09-28T03:13:37;14.10;99.90
12504;DHT22;6316;48.118;-1.690;2022-09-28T03:16:11;14.10;99.90
12504;DHT22;6316;48.118;-1.690;2022-09-28T03:18:38;14.10;99.90
12504;DHT22;6316;48.118;-1.690;2022-09-28T03:21:04;14.10;99.90
12504;DHT22;6316;48.118;-1.690;2022-09-28T03:23:30;14.10;99.90
12504;DHT22;6316;48.118;-1.690;2022-09-28T03:25:55;14.10;99.90
12504;DHT22;6316;48.118;-1.690;2022-09-28T03:28:21;14.10;99.90
12504;DHT22;6316;48.118;-1.690;2022-09-28T03:30:47;14.10;99.90
12504;DHT22;6316;48.118;-1.690;2022-09-28T03:33:13;14.10;99.90
12504;DHT22;6316;48.118;-1.690;2022-09-28T03:35:39;14.10;99.90
12504;DHT22;6316;48.118;-1.690;2022-09-28T03:38:05;14.10;99.90
12504;DHT22;6316;48.118;-1.690;2022-09-28T03:40:30;14.10;99.90
12504;DHT22;6316;48.118;-1.690;2022-09-28T03:42:56;14.10;99.90
12504;DHT22;6316;48.118;-1.690;2022-09-28T03:45:22;14.10;99.90
12504;DHT22;6316;48.118;-1.690;2022-09-28T03:47:47;14.10;99.90
12504;DHT22;6316;48.118;-1.690;2022-09-28T03:50:14;14.10;99.90
12504;DHT22;6316;48.118;-1.690;2022-09-28T03:52:40;14.10;99.90
12504;DHT22;6316;48.118;-1.690;2022-09-28T03:55:06;14.10;99.90
12504;DHT22;6316;48.118;-1.690;2022-09-28T03:57:32;14.10;99.90
12504;DHT22;6316;48.118;-1.690;2022-09-28T03:59:57;14.10;99.90
12504;DHT22;6316;48.118;-1.690;2022-09-28T04:02:23;14.10;99.90
12504;DHT22;6316;48.118;-1.690;2022-09-28T04:04:48;14.10;99.90
12504;DHT22;6316;48.118;-1.690;2022-09-28T04:07:14;14.10;99.90
12504;DHT22;6316;48.118;-1.690;2022-09-28T04:09:40;14.10;99.90
12504;DHT22;6316;48.118;-1.690;2022-09-28T04:12:06;14.10;99.90
12504;DHT22;6316;48.118;-1.690;2022-09-28T04:14:31;14.10;99.90
12504;DHT22;6316;48.118;-1.690;2022-09-28T04:16:57;14.10;99.90
12504;DHT22;6316;48.118;-1.690;2022-09-28T04:19:22;14.10;99.90
12504;DHT22;6316;48.118;-1.690;2022-09-28T04:21:49;14.10;99.90
12504;DHT22;6316;48.118;-1.690;2022-09-28T04:24:16;14.10;99.90
12504;DHT22;6316;48.118;-1.690;2022-09-28T04:26:42;14.10;99.90
12504;DHT22;6316;48.118;-1.690;2022-09-28T04:29:09;14.10;99.90
12504;DHT22;6316;48.118;-1.690;2022-09-28T04:31:47;14.10;99.90
12504;DHT22;6316;48.118;-1.690;2022-09-28T04:34:15;14.10;99.90
12504;DHT22;6316;48.118;-1.690;2022-09-28T04:36:42;14.10;99.90
12504;DHT22;6316;48.118;-1.690;2022-09-28T04:39:12;14.10;99.90
12504;DHT22;6316;48.118;-1.690;2022-09-28T04:41:39;14.10;99.90
12504;DHT22;6316;48.118;-1.690;2022-09-28T04:44:05;14.10;99.90
12504;DHT22;6316;48.118;-1.690;2022-09-28T04:46:31;14.10;99.90
12504;DHT22;6316;48.118;-1.690;2022-09-28T04:48:57;14.10;99.90
12504;DHT22;6316;48.118;-1.690;2022-09-28T04:51:22;14.10;99.90
12504;DHT22;6316;48.118;-1.690;2022-09-28T04:53:48;14.10;99.90
12504;DHT22;6316;48.118;-1.690;2022-09-28T04:56:15;14.10;99.90
12504;DHT22;6316;48.118;-1.690;2022-09-28T04:58:41;14.10;99.90
12504;DHT22;6316;48.118;-1.690;2022-09-28T05:01:11;14.10;99.90
12504;DHT22;6316;48.118;-1.690;2022-09-28T05:03:37;14.10;99.90
12504;DHT22;6316;48.118;-1.690;2022-09-28T05:06:04;14.10;99.90
12504;DHT22;6316;48.118;-1.690;2022-09-28T05:08:31;14.10;99.90
12504;DHT22;6316;48.118;-1.690;2022-09-28T05:10:59;14.10;99.90
12504;DHT22;6316;48.118;-1.690;2022-09-28T05:13:26;14.00;99.90
12504;DHT22;6316;48.118;-1.690;2022-09-28T05:15:53;14.10;99.90
12504;DHT22;6316;48.118;-1.690;2022-09-28T05:18:20;14.10;99.90
12504;DHT22;6316;48.118;-1.690;2022-09-28T05:20:45;14.10;99.90
12504;DHT22;6316;48.118;-1.690;2022-09-28T05:23:12;14.00;99.90
12504;DHT22;6316;48.118;-1.690;2022-09-28T05:25:38;14.00;99.90
12504;DHT22;6316;48.118;-1.690;2022-09-28T05:28:04;14.00;99.90
12504;DHT22;6316;48.118;-1.690;2022-09-28T05:30:30;14.00;99.90
12504;DHT22;6316;48.118;-1.690;2022-09-28T05:32:56;14.00;99.90
12504;DHT22;6316;48.118;-1.690;2022-09-28T05:35:22;14.00;99.90
12504;DHT22;6316;48.118;-1.690;2022-09-28T05:37:47;14.00;99.90
12504;DHT22;6316;48.118;-1.690;2022-09-28T05:40:14;14.00;99.90
12504;DHT22;6316;48.118;-1.690;2022-09-28T05:42:40;14.00;99.90
12504;DHT22;6316;48.118;-1.690;2022-09-28T05:45:07;14.00;99.90
12504;DHT22;6316;48.118;-1.690;2022-09-28T05:47:37;14.00;99.90
12504;DHT22;6316;48.118;-1.690;2022-09-28T05:50:04;14.10;99.90
12504;DHT22;6316;48.118;-1.690;2022-09-28T05:52:30;14.10;99.90
12504;DHT22;6316;48.118;-1.690;2022-09-28T05:54:56;14.10;99.90
12504;DHT22;6316;48.118;-1.690;2022-09-28T05:57:21;14.10;99.90
12504;DHT22;6316;48.118;-1.690;2022-09-28T05:59:47;14.10;99.90
12504;DHT22;6316;48.118;-1.690;2022-09-28T06:02:12;14.10;99.90
12504;DHT22;6316;48.118;-1.690;2022-09-28T06:04:38;14.10;99.90
12504;DHT22;6316;48.118;-1.690;2022-09-28T06:07:04;14.10;99.90
12504;DHT22;6316;48.118;-1.690;2022-09-28T06:09:29;14.10;99.90
12504;DHT22;6316;48.118;-1.690;2022-09-28T06:11:57;14.10;99.90
12504;DHT22;6316;48.118;-1.690;2022-09-28T06:14:24;14.20;99.90
12504;DHT22;6316;48.118;-1.690;2022-09-28T06:16:49;14.10;99.90
12504;DHT22;6316;48.118;-1.690;2022-09-28T06:19:15;14.20;99.90
12504;DHT22;6316;48.118;-1.690;2022-09-28T06:21:40;14.20;99.90
12504;DHT22;6316;48.118;-1.690;2022-09-28T06:24:06;14.20;99.90
12504;DHT22;6316;48.118;-1.690;2022-09-28T06:26:32;14.20;99.90
12504;DHT22;6316;48.118;-1.690;2022-09-28T06:28:57;14.20;99.90
12504;DHT22;6316;48.118;-1.690;2022-09-28T06:31:25;14.20;99.90
12504;DHT22;6316;48.118;-1.690;2022-09-28T06:33:51;14.10;99.90
12504;DHT22;6316;48.118;-1.690;2022-09-28T06:36:18;14.10;99.90
12504;DHT22;6316;48.118;-1.690;2022-09-28T06:38:44;14.10;99.90
12504;DHT22;6316;48.118;-1.690;2022-09-28T06:41:10;14.10;99.90
12504;DHT22;6316;48.118;-1.690;2022-09-28T06:43:37;14.10;99.90
12504;DHT22;6316;48.118;-1.690;2022-09-28T06:46:04;14.10;99.90
12504;DHT22;6316;48.118;-1.690;2022-09-28T06:48:30;14.10;99.90
12504;DHT22;6316;48.118;-1.690;2022-09-28T06:50:58;14.10;99.90
12504;DHT22;6316;48.118;-1.690;2022-09-28T06:53:25;14.10;99.90
12504;DHT22;6316;48.118;-1.690;2022-09-28T06:55:51;14.10;99.90
12504;DHT22;6316;48.118;-1.690;2022-09-28T06:58:18;14.10;99.90
12504;DHT22;6316;48.118;-1.690;2022-09-28T07:00:46;14.10;99.90
12504;DHT22;6316;48.118;-1.690;2022-09-28T07:03:14;14.10;99.90
12504;DHT22;6316;48.118;-1.690;2022-09-28T07:05:43;14.00;99.90
12504;DHT22;6316;48.118;-1.690;2022-09-28T07:08:09;14.00;99.90
12504;DHT22;6316;48.118;-1.690;2022-09-28T07:10:39;14.00;99.90
12504;DHT22;6316;48.118;-1.690;2022-09-28T07:13:05;13.90;99.90
12504;DHT22;6316;48.118;-1.690;2022-09-28T07:15:32;13.90;99.90
12504;DHT22;6316;48.118;-1.690;2022-09-28T07:17:59;13.90;99.90
12504;DHT22;6316;48.118;-1.690;2022-09-28T07:20:25;14.00;99.90
12504;DHT22;6316;48.118;-1.690;2022-09-28T07:22:53;14.00;99.90
12504;DHT22;6316;48.118;-1.690;2022-09-28T07:25:19;14.00;99.90
12504;DHT22;6316;48.118;-1.690;2022-09-28T07:27:45;14.00;99.90
12504;DHT22;6316;48.118;-1.690;2022-09-28T07:30:12;14.10;99.90
12504;DHT22;6316;48.118;-1.690;2022-09-28T07:32:37;14.10;99.90
12504;DHT22;6316;48.118;-1.690;2022-09-28T07:35:05;14.10;99.90
12504;DHT22;6316;48.118;-1.690;2022-09-28T07:37:33;14.20;99.90
12504;DHT22;6316;48.118;-1.690;2022-09-28T07:39:59;14.30;99.90
12504;DHT22;6316;48.118;-1.690;2022-09-28T07:42:43;14.20;99.90
12504;DHT22;6316;48.118;-1.690;2022-09-28T07:45:09;14.30;99.90
12504;DHT22;6316;48.118;-1.690;2022-09-28T07:47:35;14.30;99.90
12504;DHT22;6316;48.118;-1.690;2022-09-28T07:50:01;14.30;99.90
12504;DHT22;6316;48.118;-1.690;2022-09-28T07:52:26;14.40;99.90
12504;DHT22;6316;48.118;-1.690;2022-09-28T07:54:54;14.40;99.90
12504;DHT22;6316;48.118;-1.690;2022-09-28T07:57:20;14.40;99.90
12504;DHT22;6316;48.118;-1.690;2022-09-28T07:59:47;14.40;99.90
12504;DHT22;6316;48.118;-1.690;2022-09-28T08:02:14;14.40;99.90
12504;DHT22;6316;48.118;-1.690;2022-09-28T08:04:40;14.40;99.90
12504;DHT22;6316;48.118;-1.690;2022-09-28T08:07:09;14.40;99.90
12504;DHT22;6316;48.118;-1.690;2022-09-28T08:09:35;14.40;99.90
12504;DHT22;6316;48.118;-1.690;2022-09-28T08:12:01;14.40;99.90
12504;DHT22;6316;48.118;-1.690;2022-09-28T08:14:29;14.50;99.90
12504;DHT22;6316;48.118;-1.690;2022-09-28T08:17:01;14.50;99.90
12504;DHT22;6316;48.118;-1.690;2022-09-28T08:19:27;14.50;99.90
12504;DHT22;6316;48.118;-1.690;2022-09-28T08:22:16;14.50;99.90
12504;DHT22;6316;48.118;-1.690;2022-09-28T08:24:42;14.60;99.90
12504;DHT22;6316;48.118;-1.690;2022-09-28T08:27:09;14.60;99.90
12504;DHT22;6316;48.118;-1.690;2022-09-28T08:29:35;14.60;99.90
12504;DHT22;6316;48.118;-1.690;2022-09-28T08:32:01;14.60;99.90
12504;DHT22;6316;48.118;-1.690;2022-09-28T08:34:27;14.60;99.90
12504;DHT22;6316;48.118;-1.690;2022-09-28T08:36:56;14.70;99.90
12504;DHT22;6316;48.118;-1.690;2022-09-28T08:39:21;14.70;99.90
12504;DHT22;6316;48.118;-1.690;2022-09-28T08:44:50;14.80;99.90
12504;DHT22;6316;48.118;-1.690;2022-09-28T08:47:23;14.80;99.90
12504;DHT22;6316;48.118;-1.690;2022-09-28T08:50:15;14.90;99.90
12504;DHT22;6316;48.118;-1.690;2022-09-28T08:52:47;15.00;99.90
12504;DHT22;6316;48.118;-1.690;2022-09-28T08:58:16;15.10;99.90
12504;DHT22;6316;48.118;-1.690;2022-09-28T09:00:49;15.20;99.90
12504;DHT22;6316;48.118;-1.690;2022-09-28T09:03:30;15.20;99.90
12504;DHT22;6316;48.118;-1.690;2022-09-28T09:06:10;15.20;99.90
12504;DHT22;6316;48.118;-1.690;2022-09-28T09:17:23;15.40;99.90
12504;DHT22;6316;48.118;-1.690;2022-09-28T09:19:57;15.40;99.90
12504;DHT22;6316;48.118;-1.690;2022-09-28T09:25:27;15.40;99.90
12504;DHT22;6316;48.118;-1.690;2022-09-28T09:28:22;15.40;99.90
12504;DHT22;6316;48.118;-1.690;2022-09-28T09:33:46;15.40;99.90
12504;DHT22;6316;48.118;-1.690;2022-09-28T09:44:04;15.40;99.90
12504;DHT22;6316;48.118;-1.690;2022-09-28T09:49:49;15.50;99.90
12504;DHT22;6316;48.118;-1.690;2022-09-28T09:52:23;15.60;99.90
12504;DHT22;6316;48.118;-1.690;2022-09-28T09:55:09;15.60;99.90
12504;DHT22;6316;48.118;-1.690;2022-09-28T09:57:46;15.70;99.90
12504;DHT22;6316;48.118;-1.690;2022-09-28T10:00:16;15.60;99.90
12504;DHT22;6316;48.118;-1.690;2022-09-28T10:02:45;15.70;99.90
12504;DHT22;6316;48.118;-1.690;2022-09-28T10:07:38;15.70;99.90
12504;DHT22;6316;48.118;-1.690;2022-09-28T10:10:21;15.70;99.90
12504;DHT22;6316;48.118;-1.690;2022-09-28T10:12:49;15.70;99.90
12504;DHT22;6316;48.118;-1.690;2022-09-28T10:15:29;15.70;99.90
12504;DHT22;6316;48.118;-1.690;2022-09-28T10:17:56;15.80;99.90
12504;DHT22;6316;48.118;-1.690;2022-09-28T10:20:23;15.80;99.90
12504;DHT22;6316;48.118;-1.690;2022-09-28T10:22:55;15.80;99.90
12504;DHT22;6316;48.118;-1.690;2022-09-28T10:25:22;15.80;99.90
12504;DHT22;6316;48.118;-1.690;2022-09-28T10:27:49;15.80;99.90
12504;DHT22;6316;48.118;-1.690;2022-09-28T10:30:18;15.80;99.90
12504;DHT22;6316;48.118;-1.690;2022-09-28T10:32:47;15.80;99.90
12504;DHT22;6316;48.118;-1.690;2022-09-28T10:35:29;15.90;99.90
12504;DHT22;6316;48.118;-1.690;2022-09-28T10:38:14;15.90;99.90
12504;DHT22;6316;48.118;-1.690;2022-09-28T10:40:52;15.90;99.90
12504;DHT22;6316;48.118;-1.690;2022-09-28T10:51:12;16.20;99.90
12504;DHT22;6316;48.118;-1.690;2022-09-28T10:53:38;16.30;99.90
12504;DHT22;6316;48.118;-1.690;2022-09-28T10:56:18;16.20;99.90
12504;DHT22;6316;48.118;-1.690;2022-09-28T10:58:44;16.20;99.90
12504;DHT22;6316;48.118;-1.690;2022-09-28T11:01:13;16.30;99.90
12504;DHT22;6316;48.118;-1.690;2022-09-28T11:03:54;16.20;99.90
12504;DHT22;6316;48.118;-1.690;2022-09-28T11:06:39;16.20;99.90
12504;DHT22;6316;48.118;-1.690;2022-09-28T11:09:25;16.20;99.90
12504;DHT22;6316;48.118;-1.690;2022-09-28T11:11:53;16.20;99.90
12504;DHT22;6316;48.118;-1.690;2022-09-28T11:14:34;16.10;99.90
12504;DHT22;6316;48.118;-1.690;2022-09-28T11:17:30;16.10;99.90
12504;DHT22;6316;48.118;-1.690;2022-09-28T11:20:29;16.10;99.90
12504;DHT22;6316;48.118;-1.690;2022-09-28T11:25:42;16.10;99.90
12504;DHT22;6316;48.118;-1.690;2022-09-28T11:28:20;16.10;99.90
12504;DHT22;6316;48.118;-1.690;2022-09-28T11:30:51;16.10;99.90
12504;DHT22;6316;48.118;-1.690;2022-09-28T11:36:32;16.20;99.90
12504;DHT22;6316;48.118;-1.690;2022-09-28T11:55:23;16.20;99.90
12504;DHT22;6316;48.118;-1.690;2022-09-28T11:58:02;16.10;99.90
12504;DHT22;6316;48.118;-1.690;2022-09-28T12:00:30;16.00;99.90
12504;DHT22;6316;48.118;-1.690;2022-09-28T12:03:07;15.90;99.90
12504;DHT22;6316;48.118;-1.690;2022-09-28T12:05:43;15.90;99.90
12504;DHT22;6316;48.118;-1.690;2022-09-28T12:08:25;15.90;99.90
12504;DHT22;6316;48.118;-1.690;2022-09-28T12:13:27;16.10;99.90
12504;DHT22;6316;48.118;-1.690;2022-09-28T12:16:07;16.10;99.90
12504;DHT22;6316;48.118;-1.690;2022-09-28T12:18:40;16.10;99.90
12504;DHT22;6316;48.118;-1.690;2022-09-28T12:23:53;16.20;99.90
12504;DHT22;6316;48.118;-1.690;2022-09-28T12:26:31;16.30;99.90
12504;DHT22;6316;48.118;-1.690;2022-09-28T12:29:01;16.40;99.90
12504;DHT22;6316;48.118;-1.690;2022-09-28T12:31:57;16.50;99.90
12504;DHT22;6316;48.118;-1.690;2022-09-28T12:34:24;16.60;99.90
12504;DHT22;6316;48.118;-1.690;2022-09-28T12:36:54;16.70;99.90
12504;DHT22;6316;48.118;-1.690;2022-09-28T12:52:31;17.10;99.90
12504;DHT22;6316;48.118;-1.690;2022-09-28T12:58:23;17.20;99.90
12504;DHT22;6316;48.118;-1.690;2022-09-28T13:06:52;17.10;99.90
12504;DHT22;6316;48.118;-1.690;2022-09-28T13:09:22;17.10;99.90
12504;DHT22;6316;48.118;-1.690;2022-09-28T13:15:19;17.00;99.90
12504;DHT22;6316;48.118;-1.690;2022-09-28T13:23:13;17.10;99.90
12504;DHT22;6316;48.118;-1.690;2022-09-28T13:25:46;17.00;99.90
12504;DHT22;6316;48.118;-1.690;2022-09-28T13:28:15;17.00;99.90
12504;DHT22;6316;48.118;-1.690;2022-09-28T13:30:43;16.90;99.90
12504;DHT22;6316;48.118;-1.690;2022-09-28T13:33:19;16.90;99.90
12504;DHT22;6316;48.118;-1.690;2022-09-28T13:35:47;16.90;99.90
12504;DHT22;6316;48.118;-1.690;2022-09-28T13:49:39;17.20;99.90
12504;DHT22;6316;48.118;-1.690;2022-09-28T13:58:04;17.30;99.90
12504;DHT22;6316;48.118;-1.690;2022-09-28T14:00:52;17.30;99.90
12504;DHT22;6316;48.118;-1.690;2022-09-28T14:03:58;17.20;99.90
12504;DHT22;6316;48.118;-1.690;2022-09-28T14:06:33;17.20;99.90
12504;DHT22;6316;48.118;-1.690;2022-09-28T14:09:38;17.10;99.90
12504;DHT22;6316;48.118;-1.690;2022-09-28T14:15:00;17.10;99.90
12504;DHT22;6316;48.118;-1.690;2022-09-28T14:17:34;17.10;99.90
12504;DHT22;6316;48.118;-1.690;2022-09-28T14:20:14;17.00;99.90
12504;DHT22;6316;48.118;-1.690;2022-09-28T14:25:25;16.60;99.90
12504;DHT22;6316;48.118;-1.690;2022-09-28T14:28:15;16.50;99.90
12504;DHT22;6316;48.118;-1.690;2022-09-28T14:30:50;16.30;99.90
12504;DHT22;6316;48.118;-1.690;2022-09-28T14:35:52;16.10;99.90
12504;DHT22;6316;48.118;-1.690;2022-09-28T14:38:27;16.00;99.90
12504;DHT22;6316;48.118;-1.690;2022-09-28T14:48:47;15.90;99.90
12504;DHT22;6316;48.118;-1.690;2022-09-28T14:53:57;15.90;99.90
12504;DHT22;6316;48.118;-1.690;2022-09-28T14:56:37;15.90;99.90
12504;DHT22;6316;48.118;-1.690;2022-09-28T14:59:04;15.80;99.90
12504;DHT22;6316;48.118;-1.690;2022-09-28T15:01:32;15.80;99.90
12504;DHT22;6316;48.118;-1.690;2022-09-28T15:04:01;15.80;99.90
12504;DHT22;6316;48.118;-1.690;2022-09-28T15:06:43;15.80;99.90
12504;DHT22;6316;48.118;-1.690;2022-09-28T15:12:04;15.90;99.90
12504;DHT22;6316;48.118;-1.690;2022-09-28T15:14:34;15.90;99.90
12504;DHT22;6316;48.118;-1.690;2022-09-28T15:17:08;15.90;99.90
12504;DHT22;6316;48.118;-1.690;2022-09-28T15:22:30;16.10;99.90
12504;DHT22;6316;48.118;-1.690;2022-09-28T15:24:59;16.10;99.90
12504;DHT22;6316;48.118;-1.690;2022-09-28T15:27:33;16.20;99.90
12504;DHT22;6316;48.118;-1.690;2022-09-28T15:32:50;16.30;99.90
12504;DHT22;6316;48.118;-1.690;2022-09-28T15:35:24;16.40;99.90
12504;DHT22;6316;48.118;-1.690;2022-09-28T15:37:51;16.50;99.90
12504;DHT22;6316;48.118;-1.690;2022-09-28T15:40:31;16.50;99.90
12504;DHT22;6316;48.118;-1.690;2022-09-28T15:42:57;16.60;99.90
12504;DHT22;6316;48.118;-1.690;2022-09-28T15:45:38;16.60;99.90
12504;DHT22;6316;48.118;-1.690;2022-09-28T15:48:27;16.60;99.90
12504;DHT22;6316;48.118;-1.690;2022-09-28T15:51:06;16.50;99.90
12504;DHT22;6316;48.118;-1.690;2022-09-28T15:53:39;16.50;99.90
12504;DHT22;6316;48.118;-1.690;2022-09-28T15:56:06;16.50;99.90
12504;DHT22;6316;48.118;-1.690;2022-09-28T15:58:35;16.40;99.90
12504;DHT22;6316;48.118;-1.690;2022-09-28T16:01:26;16.40;99.90
12504;DHT22;6316;48.118;-1.690;2022-09-28T16:03:55;16.40;99.90
12504;DHT22;6316;48.118;-1.690;2022-09-28T16:06:21;16.30;99.90
12504;DHT22;6316;48.118;-1.690;2022-09-28T16:08:47;16.30;99.90
12504;DHT22;6316;48.118;-1.690;2022-09-28T16:14:06;16.20;99.90
12504;DHT22;6316;48.118;-1.690;2022-09-28T16:16:49;16.20;99.90
12504;DHT22;6316;48.118;-1.690;2022-09-28T16:19:27;16.20;99.90
12504;DHT22;6316;48.118;-1.690;2022-09-28T16:21:57;16.10;99.90
12504;DHT22;6316;48.118;-1.690;2022-09-28T16:24:36;16.10;99.90
12504;DHT22;6316;48.118;-1.690;2022-09-28T16:27:08;16.00;99.90
12504;DHT22;6316;48.118;-1.690;2022-09-28T16:36:07;15.80;99.90
12504;DHT22;6316;48.118;-1.690;2022-09-28T16:38:10;15.80;99.90
12504;DHT22;6316;48.118;-1.690;2022-09-28T16:40:44;15.70;99.90
12504;DHT22;6316;48.118;-1.690;2022-09-28T16:43:19;15.70;99.90
12504;DHT22;6316;48.118;-1.690;2022-09-28T16:45:47;15.70;99.90
12504;DHT22;6316;48.118;-1.690;2022-09-28T16:48:14;15.70;99.90
12504;DHT22;6316;48.118;-1.690;2022-09-28T16:50:45;15.60;99.90
12504;DHT22;6316;48.118;-1.690;2022-09-28T16:53:14;15.60;99.90
12504;DHT22;6316;48.118;-1.690;2022-09-28T16:55:59;15.50;99.90
12504;DHT22;6316;48.118;-1.690;2022-09-28T16:58:25;15.50;99.90
12504;DHT22;6316;48.118;-1.690;2022-09-28T17:00:51;15.50;99.90
12504;DHT22;6316;48.118;-1.690;2022-09-28T17:03:20;15.40;99.90
12504;DHT22;6316;48.118;-1.690;2022-09-28T17:05:48;15.40;99.90
12504;DHT22;6316;48.118;-1.690;2022-09-28T17:08:17;15.40;99.90
12504;DHT22;6316;48.118;-1.690;2022-09-28T17:13:11;15.30;99.90
12504;DHT22;6316;48.118;-1.690;2022-09-28T17:15:39;15.20;99.90
12504;DHT22;6316;48.118;-1.690;2022-09-28T17:18:05;15.20;99.90
12504;DHT22;6316;48.118;-1.690;2022-09-28T17:20:31;15.20;99.90
12504;DHT22;6316;48.118;-1.690;2022-09-28T17:22:57;15.30;99.90
12504;DHT22;6316;48.118;-1.690;2022-09-28T17:25:24;15.30;99.90
12504;DHT22;6316;48.118;-1.690;2022-09-28T17:27:51;15.30;99.90
12504;DHT22;6316;48.118;-1.690;2022-09-28T17:30:19;15.30;99.90
12504;DHT22;6316;48.118;-1.690;2022-09-28T17:32:46;15.30;99.90
12504;DHT22;6316;48.118;-1.690;2022-09-28T17:35:17;15.30;99.90
12504;DHT22;6316;48.118;-1.690;2022-09-28T17:37:43;15.30;99.90
12504;DHT22;6316;48.118;-1.690;2022-09-28T17:42:46;15.20;99.90
12504;DHT22;6316;48.118;-1.690;2022-09-28T17:45:13;15.20;99.90
12504;DHT22;6316;48.118;-1.690;2022-09-28T17:47:39;15.10;99.90
12504;DHT22;6316;48.118;-1.690;2022-09-28T17:50:29;15.10;99.90
12504;DHT22;6316;48.118;-1.690;2022-09-28T17:52:56;15.00;99.90
12504;DHT22;6316;48.118;-1.690;2022-09-28T17:55:29;15.00;99.90
12504;DHT22;6316;48.118;-1.690;2022-09-28T17:57:56;14.90;99.90
12504;DHT22;6316;48.118;-1.690;2022-09-28T18:00:22;14.90;99.90
12504;DHT22;6316;48.118;-1.690;2022-09-28T18:02:52;14.80;99.90
12504;DHT22;6316;48.118;-1.690;2022-09-28T18:05:27;14.80;99.90
12504;DHT22;6316;48.118;-1.690;2022-09-28T18:07:55;14.80;99.90
12504;DHT22;6316;48.118;-1.690;2022-09-28T18:10:23;14.70;99.90
12504;DHT22;6316;48.118;-1.690;2022-09-28T18:12:49;14.70;99.90
12504;DHT22;6316;48.118;-1.690;2022-09-28T18:15:16;14.70;99.90
12504;DHT22;6316;48.118;-1.690;2022-09-28T18:17:43;14.70;99.90
12504;DHT22;6316;48.118;-1.690;2022-09-28T18:20:10;14.60;99.90
12504;DHT22;6316;48.118;-1.690;2022-09-28T18:22:36;14.60;99.90
12504;DHT22;6316;48.118;-1.690;2022-09-28T18:25:03;14.60;99.90
12504;DHT22;6316;48.118;-1.690;2022-09-28T18:27:29;14.60;99.90
12504;DHT22;6316;48.118;-1.690;2022-09-28T18:29:56;14.60;99.90
12504;DHT22;6316;48.118;-1.690;2022-09-28T18:32:22;14.50;99.90
12504;DHT22;6316;48.118;-1.690;2022-09-28T18:34:48;14.50;99.90
12504;DHT22;6316;48.118;-1.690;2022-09-28T18:37:13;14.40;99.90
12504;DHT22;6316;48.118;-1.690;2022-09-28T18:39:39;14.40;99.90
12504;DHT22;6316;48.118;-1.690;2022-09-28T18:42:05;14.40;99.90
12504;DHT22;6316;48.118;-1.690;2022-09-28T18:44:31;14.30;99.90
12504;DHT22;6316;48.118;-1.690;2022-09-28T18:46:57;14.30;99.90
12504;DHT22;6316;48.118;-1.690;2022-09-28T18:49:23;14.30;99.90
12504;DHT22;6316;48.118;-1.690;2022-09-28T18:51:49;14.20;99.90
12504;DHT22;6316;48.118;-1.690;2022-09-28T18:54:15;14.20;99.90
12504;DHT22;6316;48.118;-1.690;2022-09-28T18:56:41;14.10;99.90